Time;durP1;ratioP1;P1;durP2;ratioP2;P2;SDS_P1;SDS_P2;PMS_P1;PMS_P2;Temp;Humidity;BMP_temperature;BMP_pressure;BME280_temperature;BME280_humidity;BME280_pressure;Samples;Min_cycle;Max_cycle;Signal;HPM_P1;HPM_P2
2022/03/16 00:00:46;;;;;;;2.20;1.10;;;6.10;99.90;;;;;;20972213;28;20571;-57
2022/03/16 00:10:49;;;;;;;2.47;1.40;;;6.10;99.90;;;;;;20970786;28;20040;-57
2022/03/16 00:20:52;;;;;;;2.50;1.30;;;6.30;99.90;;;;;;20970729;28;20133;-56
2022/03/16 00:30:56;;;;;;;29.52;16.13;;;6.20;99.90;;;;;;20969634;28;20040;-56
2022/03/16 00:40:59;;;;;;;3.05;1.60;;;6.30;99.90;;;;;;20593100;28;20051;-56
2022/03/16 00:51:02;;;;;;;4.07;2.67;;;5.60;99.90;;;;;;20568633;28;20451;-56
2022/03/16 01:01:06;;;;;;;4.13;2.10;;;6.00;99.90;;;;;;20568024;28;20039;-57
2022/03/16 01:11:10;;;;;;;2.20;1.45;;;5.60;99.90;;;;;;20547257;28;20492;-56
2022/03/16 01:21:12;;;;;;;6.38;3.33;;;5.60;99.90;;;;;;20485616;28;20113;-56
2022/03/16 01:31:19;;;;;;;33.42;18.02;;;5.40;99.90;;;;;;20470448;28;20295;-56
2022/03/16 01:41:22;;;;;;;48.30;22.33;;;4.90;99.90;;;;;;20545847;28;20081;-57
2022/03/16 01:51:27;;;;;;;43.42;21.90;;;4.00;99.90;;;;;;20480935;29;20084;-58
2022/03/16 02:01:33;;;;;;;37.83;20.05;;;4.00;99.90;;;;;;20464589;29;20092;-57
2022/03/16 02:11:35;;;;;;;58.53;33.50;;;3.90;99.90;;;;;;20464224;29;20547;-57
2022/03/16 02:21:43;;;;;;;45.75;22.90;;;3.80;99.90;;;;;;20480426;29;20043;-57
2022/03/16 02:31:45;;;;;;;47.30;23.85;;;3.40;99.90;;;;;;20477401;28;20039;-57
2022/03/16 02:41:50;;;;;;;44.72;25.00;;;3.50;99.90;;;;;;20615362;28;20038;-55
2022/03/16 02:51:53;;;;;;;48.92;26.10;;;3.20;99.90;;;;;;20652116;28;20072;-57
2022/03/16 03:01:56;;;;;;;51.67;26.70;;;3.20;99.90;;;;;;20651569;28;20043;-55
2022/03/16 03:11:59;;;;;;;54.33;27.65;;;3.00;99.90;;;;;;20624737;28;20039;-56
2022/03/16 03:22:04;;;;;;;56.47;28.23;;;2.50;99.90;;;;;;20503449;29;20039;-56
2022/03/16 03:32:07;;;;;;;57.38;29.40;;;2.10;99.90;;;;;;20519934;28;20101;-57
2022/03/16 03:42:11;;;;;;;55.10;27.92;;;1.80;99.90;;;;;;20495837;29;20065;-57
2022/03/16 03:52:13;;;;;;;56.88;27.20;;;1.70;99.90;;;;;;20488580;28;20039;-54
2022/03/16 04:02:16;;;;;;;60.38;26.85;;;1.70;99.90;;;;;;20472039;29;20066;-54
2022/03/16 04:12:18;;;;;;;46.70;23.92;;;1.60;99.90;;;;;;20532100;28;20088;-56
2022/03/16 04:22:21;;;;;;;47.55;23.90;;;1.30;99.90;;;;;;20550252;28;20084;-56
2022/03/16 04:32:24;;;;;;;45.50;20.98;;;1.20;99.90;;;;;;20633941;28;20050;-56
2022/03/16 04:42:30;;;;;;;43.05;20.05;;;1.10;99.90;;;;;;20639547;28;20400;-57
2022/03/16 04:52:41;;;;;;;39.22;19.48;;;1.20;99.90;;;;;;20548365;28;20072;-57
2022/03/16 05:02:44;;;;;;;48.58;23.38;;;1.20;99.90;;;;;;20608334;28;20097;-55
2022/03/16 05:12:46;;;;;;;47.63;22.30;;;1.00;99.90;;;;;;20513709;28;20447;-56
2022/03/16 05:22:51;;;;;;;44.38;21.10;;;0.90;99.90;;;;;;20526640;28;20035;-56
2022/03/16 05:32:56;;;;;;;58.58;26.63;;;0.80;99.90;;;;;;20466341;29;20111;-55
2022/03/16 05:43:00;;;;;;;45.08;22.33;;;0.70;99.90;;;;;;20465911;28;20089;-54
2022/03/16 05:53:03;;;;;;;51.60;23.42;;;1.00;99.90;;;;;;20543918;28;20077;-54
2022/03/16 06:03:06;;;;;;;52.92;25.02;;;1.20;99.90;;;;;;20558349;28;20035;-56
2022/03/16 06:13:08;;;;;;;54.97;24.02;;;1.40;99.90;;;;;;20578267;28;20038;-56
2022/03/16 06:23:10;;;;;;;53.03;25.67;;;1.60;99.90;;;;;;20543324;28;20348;-54
2022/03/16 06:33:13;;;;;;;46.33;24.90;;;2.00;99.90;;;;;;20623009;28;20104;-57
2022/03/16 06:43:16;;;;;;;49.80;24.98;;;2.40;99.90;;;;;;20622655;28;20081;-57
2022/03/16 06:53:19;;;;;;;40.70;20.38;;;2.70;99.90;;;;;;20541865;28;20104;-58
2022/03/16 07:03:23;;;;;;;40.88;22.38;;;3.20;99.90;;;;;;20541825;28;20039;-58
2022/03/16 07:13:25;;;;;;;40.00;22.95;;;3.80;99.90;;;;;;20502893;28;20519;-58
2022/03/16 07:23:27;;;;;;;38.30;22.08;;;4.20;99.90;;;;;;20458811;28;20080;-58
2022/03/16 07:33:30;;;;;;;38.70;20.42;;;4.70;99.90;;;;;;20475087;28;20055;-59
2022/03/16 07:43:33;;;;;;;31.20;18.83;;;5.30;99.90;;;;;;20473582;29;20093;-59
2022/03/16 07:53:36;;;;;;;37.47;20.65;;;5.90;99.90;;;;;;20472618;28;20081;-59
2022/03/16 08:03:39;;;;;;;31.70;17.95;;;6.40;99.90;;;;;;20472049;29;20089;-59
2022/03/16 08:13:41;;;;;;;29.73;18.13;;;6.90;99.90;;;;;;20628190;28;20089;-59
2022/03/16 08:23:46;;;;;;;35.90;19.75;;;7.40;99.90;;;;;;20610456;28;20095;-59
2022/03/16 08:33:51;;;;;;;36.95;21.13;;;7.90;99.90;;;;;;20534140;28;20063;-59
2022/03/16 08:43:55;;;;;;;37.47;21.25;;;8.20;99.90;;;;;;20633484;28;20047;-57
2022/03/16 08:53:57;;;;;;;35.20;20.33;;;8.50;99.90;;;;;;20548448;28;20035;-59
2022/03/16 09:04:01;;;;;;;34.72;20.95;;;8.90;99.90;;;;;;20625817;28;20472;-59
2022/03/16 09:14:05;;;;;;;33.72;19.38;;;9.20;99.90;;;;;;20504076;28;20039;-59
2022/03/16 09:24:08;;;;;;;35.65;19.70;;;9.60;99.90;;;;;;20545423;28;20039;-59
2022/03/16 09:34:10;;;;;;;36.75;20.30;;;10.30;99.90;;;;;;20466282;29;20051;-59
2022/03/16 09:44:15;;;;;;;38.00;21.08;;;10.40;99.90;;;;;;20465343;29;20036;-59
2022/03/16 09:54:17;;;;;;;33.75;21.08;;;10.60;99.90;;;;;;20465456;29;20039;-59
2022/03/16 10:04:31;;;;;;;33.75;20.10;;;11.10;99.90;;;;;;20544704;28;20558;-68
2022/03/16 10:14:38;;;;;;;32.72;19.27;;;11.30;99.90;;;;;;20511292;28;20030;-60
2022/03/16 10:24:42;;;;;;;36.58;19.88;;;11.30;99.90;;;;;;20562462;28;20034;-59
2022/03/16 10:34:55;;;;;;;36.25;22.05;;;11.60;99.90;;;;;;20542588;28;20500;-67
2022/03/16 10:55:40;;;;;;;40.17;23.27;;;12.00;98.80;;;;;;20638281;28;20468;-68
2022/03/16 11:05:43;;;;;;;35.53;21.38;;;12.00;98.30;;;;;;20673983;28;20096;-67
2022/03/16 11:15:50;;;;;;;42.90;24.33;;;12.10;98.70;;;;;;20574110;28;20039;-67
2022/03/16 11:26:03;;;;;;;39.88;24.10;;;12.10;98.40;;;;;;20474597;29;20108;-66
2022/03/16 11:36:06;;;;;;;44.72;26.95;;;12.30;99.20;;;;;;20552197;28;20070;-66
2022/03/16 11:46:28;;;;;;;46.03;27.35;;;12.40;98.60;;;;;;20551964;28;20113;-66
2022/03/16 11:56:39;;;;;;;53.78;32.13;;;12.80;97.90;;;;;;20553746;28;20392;-59
2022/03/16 12:07:03;;;;;;;45.15;27.70;;;12.90;96.10;;;;;;20530209;28;20035;-68
2022/03/16 12:17:14;;;;;;;41.63;25.13;;;12.30;98.20;;;;;;20601412;28;20043;-59
2022/03/16 12:37:49;;;;;;;51.70;31.77;;;13.00;98.20;;;;;;20649074;28;20043;-60
2022/03/16 12:48:12;;;;;;;44.58;26.63;;;13.50;97.50;;;;;;20660875;28;20050;-69
2022/03/16 12:58:24;;;;;;;41.92;26.52;;;13.00;98.40;;;;;;20560698;28;20086;-69
2022/03/16 13:08:27;;;;;;;48.72;27.08;;;12.70;99.30;;;;;;20640322;28;20455;-60
2022/03/16 13:18:32;;;;;;;41.65;25.20;;;12.90;99.40;;;;;;20629395;28;20035;-60
2022/03/16 13:28:34;;;;;;;37.40;22.15;;;12.90;98.70;;;;;;20547619;28;20031;-70
2022/03/16 13:38:37;;;;;;;39.22;23.33;;;12.70;99.20;;;;;;20545448;28;20047;-69
2022/03/16 13:48:43;;;;;;;41.70;24.20;;;12.20;99.90;;;;;;20628386;28;20038;-60
2022/03/16 13:58:49;;;;;;;36.72;21.70;;;11.80;99.90;;;;;;20544758;28;20080;-60
2022/03/16 14:08:52;;;;;;;36.75;21.00;;;11.50;99.90;;;;;;20621310;28;20054;-59
2022/03/16 14:18:55;;;;;;;33.63;18.75;;;11.10;99.90;;;;;;20543453;28;20034;-60
2022/03/16 14:28:57;;;;;;;32.83;19.73;;;10.60;99.90;;;;;;20542479;28;20042;-69
2022/03/16 14:39:01;;;;;;;35.70;18.55;;;10.50;99.90;;;;;;20620028;28;20051;-69
2022/03/16 14:49:03;;;;;;;32.28;18.73;;;10.30;99.90;;;;;;20542311;28;20096;-68
2022/03/16 14:59:06;;;;;;;31.75;18.73;;;10.30;99.90;;;;;;20596111;28;20484;-60
2022/03/16 15:09:09;;;;;;;30.98;17.92;;;10.10;99.90;;;;;;20537082;28;20035;-68
2022/03/16 15:19:12;;;;;;;29.05;17.92;;;9.60;99.90;;;;;;20520969;28;20039;-68
2022/03/16 15:29:14;;;;;;;32.20;17.48;;;9.40;99.90;;;;;;20460740;28;20096;-68
2022/03/16 15:39:18;;;;;;;31.80;17.65;;;9.10;99.90;;;;;;20465824;28;20109;-69
2022/03/16 15:49:21;;;;;;;31.42;17.02;;;9.20;99.90;;;;;;20553904;28;20069;-66
2022/03/16 15:59:25;;;;;;;28.58;16.25;;;8.90;99.90;;;;;;20555834;28;20039;-57
2022/03/16 16:09:28;;;;;;;29.75;17.02;;;8.70;99.90;;;;;;20478815;28;20184;-56
2022/03/16 16:19:30;;;;;;;27.60;15.75;;;8.10;99.90;;;;;;20632741;28;20573;-66
2022/03/16 16:39:44;;;;;;;30.92;15.25;;;7.50;99.90;;;;;;20549373;28;20058;-69
2022/03/16 16:49:47;;;;;;;27.98;15.80;;;7.30;99.90;;;;;;20624907;28;20393;-69
2022/03/16 16:59:49;;;;;;;29.98;16.60;;;7.10;99.90;;;;;;20532475;28;20078;-59
2022/03/16 17:09:53;;;;;;;36.05;18.63;;;6.60;99.90;;;;;;20537688;28;20043;-59
2022/03/16 17:32:02;;;;;;;34.20;17.83;;;5.30;99.90;;;;;;20577266;28;20043;-56
2022/03/16 17:52:29;;;;;;;42.83;20.50;;;4.10;99.90;;;;;;20627128;28;20054;-56
2022/03/16 18:02:32;;;;;;;37.75;19.83;;;3.60;99.90;;;;;;20559409;28;20100;-57
2022/03/16 18:22:55;;;;;;;43.40;20.67;;;3.00;99.90;;;;;;20619908;28;20416;-56
2022/03/16 18:32:58;;;;;;;42.60;20.45;;;3.20;99.90;;;;;;20620460;28;20055;-56
2022/03/16 18:43:01;;;;;;;37.75;19.83;;;3.50;99.90;;;;;;20620250;28;20042;-65
2022/03/16 18:53:06;;;;;;;32.80;18.45;;;4.00;99.90;;;;;;20619870;28;20492;-56
2022/03/16 19:03:12;;;;;;;42.78;22.77;;;4.40;99.90;;;;;;20620027;28;20403;-57
2022/03/16 19:23:38;;;;;;;58.40;29.73;;;5.00;99.90;;;;;;20636885;28;20108;-57
2022/03/16 19:33:41;;;;;;;57.55;30.27;;;5.10;99.90;;;;;;20552922;28;20132;-57
2022/03/16 19:43:44;;;;;;;63.28;30.40;;;5.20;99.90;;;;;;20552722;28;20030;-57
2022/03/16 19:53:48;;;;;;;55.47;27.83;;;5.20;99.90;;;;;;20628795;28;20042;-56
2022/03/16 20:03:51;;;;;;;51.55;25.15;;;5.30;99.90;;;;;;20628310;28;20038;-56
2022/03/16 20:13:54;;;;;;;52.70;26.17;;;5.20;99.90;;;;;;20592724;28;20265;-57
2022/03/16 20:23:58;;;;;;;48.95;24.17;;;5.30;99.90;;;;;;20469503;29;20031;-57
2022/03/16 20:34:00;;;;;;;45.53;23.52;;;5.30;99.90;;;;;;20471915;28;20059;-57
2022/03/16 20:44:07;;;;;;;47.80;25.50;;;5.30;99.90;;;;;;20469565;28;20622;-56
2022/03/16 20:54:10;;;;;;;47.65;24.48;;;5.30;99.90;;;;;;20468904;28;20485;-56
2022/03/16 21:04:14;;;;;;;51.55;24.75;;;5.40;99.90;;;;;;20468545;28;20070;-56
2022/03/16 21:14:17;;;;;;;46.35;24.15;;;5.30;99.90;;;;;;20513609;28;20042;-57
2022/03/16 21:24:20;;;;;;;53.50;23.48;;;4.90;99.90;;;;;;20547362;28;20462;-65
2022/03/16 21:34:23;;;;;;;55.05;26.75;;;4.30;99.90;;;;;;20544504;28;20046;-66
2022/03/16 21:44:39;;;;;;;64.70;31.17;;;3.60;99.90;;;;;;20545560;28;20034;-56
2022/03/16 21:54:46;;;;;;;74.30;33.70;;;3.20;99.90;;;;;;20620294;28;20092;-56
2022/03/16 22:04:50;;;;;;;79.50;36.22;;;3.10;99.90;;;;;;20544026;28;20043;-55
2022/03/16 22:14:53;;;;;;;72.53;33.65;;;3.30;99.90;;;;;;20604527;28;20493;-56
2022/03/16 22:24:56;;;;;;;75.03;37.75;;;3.70;99.90;;;;;;20463024;29;20124;-56
2022/03/16 22:34:58;;;;;;;70.35;33.15;;;4.00;99.90;;;;;;20463012;29;20200;-56
2022/03/16 22:45:01;;;;;;;64.35;30.35;;;3.60;99.90;;;;;;20541366;28;20043;-56
2022/03/16 22:55:06;;;;;;;78.53;34.33;;;3.20;99.90;;;;;;20554877;28;20035;-56
2022/03/16 23:05:09;;;;;;;66.95;31.92;;;2.80;99.90;;;;;;20559838;28;20345;-55
2022/03/16 23:15:13;;;;;;;65.65;30.60;;;2.70;99.90;;;;;;20527114;28;20064;-55
2022/03/16 23:25:16;;;;;;;81.63;34.60;;;2.40;99.90;;;;;;20553842;28;20550;-53
2022/03/16 23:35:18;;;;;;;80.93;35.55;;;2.20;99.90;;;;;;20634156;28;20108;-55
2022/03/16 23:45:20;;;;;;;79.35;33.40;;;2.10;99.90;;;;;;20633878;28;20062;-54
2022/03/16 23:55:23;;;;;;;80.57;35.35;;;2.10;99.90;;;;;;20551016;28;20092;-55
